AAL2582 KPSP-KORD
Flight info
| Callsign | AAL2582 |
|---|---|
| Flight time | N/A |
| Altitude | 35000 |
| Route | CATH1 PSP V370 TNP PKE DRK J96 IRK SHAIN2 |
| Aircraft | A321/M-SDE3FGHIRWY/LB1 |
Departure
| Time | 2026-05-07 13:50 |
|---|---|
| Airport | Palm Springs International Airport (KPSP) |
Arrival
| Time | N/A |
|---|---|
| Airport | Chicago O'Hare International Airport (KORD) |
| Time | Latitude | Longitude | Altitude | Speed | Heading |
|---|---|---|---|---|---|
| 2026-05-07 13:35 | 33.82254 | -116.50619 | 431 ft | 0 kts | 324° |
| 2026-05-07 13:42 | 33.82251 | -116.50616 | 431 ft | 2 kts | 324° |
| 2026-05-07 13:42 | 33.82239 | -116.50607 | 431 ft | 2 kts | 324° |
| 2026-05-07 13:42 | 33.82227 | -116.50597 | 430 ft | 2 kts | 324° |
| 2026-05-07 13:43 | 33.82214 | -116.50586 | 430 ft | 2 kts | 324° |
| 2026-05-07 13:43 | 33.82202 | -116.50575 | 430 ft | 2 kts | 335° |
| 2026-05-07 13:43 | 33.82188 | -116.50571 | 430 ft | 2 kts | 355° |
| 2026-05-07 13:43 | 33.82177 | -116.50571 | 430 ft | 0 kts | 4° |
| 2026-05-07 13:44 | 33.82176 | -116.50571 | 430 ft | 0 kts | 4° |
| 2026-05-07 13:45 | 33.82188 | -116.50570 | 430 ft | 4 kts | 4° |
| 2026-05-07 13:45 | 33.82236 | -116.50537 | 430 ft | 11 kts | 49° |
| 2026-05-07 13:46 | 33.82287 | -116.50457 | 430 ft | 10 kts | 53° |
| 2026-05-07 13:46 | 33.82297 | -116.50382 | 429 ft | 10 kts | 127° |
| 2026-05-07 13:46 | 33.82235 | -116.50321 | 428 ft | 13 kts | 143° |
| 2026-05-07 13:46 | 33.82142 | -116.50238 | 425 ft | 17 kts | 143° |
| 2026-05-07 13:47 | 33.82040 | -116.50148 | 422 ft | 18 kts | 143° |
| 2026-05-07 13:47 | 33.81935 | -116.50054 | 420 ft | 18 kts | 143° |
| 2026-05-07 13:47 | 33.81852 | -116.49970 | 418 ft | 14 kts | 120° |
| 2026-05-07 13:47 | 33.81856 | -116.49861 | 417 ft | 12 kts | 85° |
| 2026-05-07 13:48 | 33.81896 | -116.49812 | 417 ft | 5 kts | 322° |
| 2026-05-07 13:48 | 33.81916 | -116.49830 | 417 ft | 3 kts | 324° |
| 2026-05-07 13:48 | 33.81934 | -116.49846 | 417 ft | 3 kts | 324° |
| 2026-05-07 13:48 | 33.81953 | -116.49863 | 418 ft | 3 kts | 323° |
| 2026-05-07 13:49 | 33.81966 | -116.49875 | 418 ft | 2 kts | 322° |
| 2026-05-07 13:49 | 33.81978 | -116.49885 | 418 ft | 2 kts | 322° |
| 2026-05-07 13:49 | 33.82086 | -116.49982 | 421 ft | 50 kts | 323° |
| 2026-05-07 13:49 | 33.82553 | -116.50397 | 434 ft | 113 kts | 323° |
| 2026-05-07 13:50 | 33.83344 | -116.51103 | 460 ft | 166 kts | 323° |
| 2026-05-07 13:50 | 33.84296 | -116.51943 | 920 ft | 172 kts | 322° |
| 2026-05-07 13:50 | 33.85274 | -116.52845 | 1415 ft | 181 kts | 321° |
| 2026-05-07 13:50 | 33.86255 | -116.53777 | 2023 ft | 182 kts | 321° |
| 2026-05-07 13:51 | 33.87268 | -116.54760 | 2499 ft | 192 kts | 321° |
| 2026-05-07 13:51 | 33.88325 | -116.55805 | 2802 ft | 203 kts | 321° |
| 2026-05-07 13:51 | 33.89443 | -116.56905 | 3027 ft | 213 kts | 324° |
| 2026-05-07 13:51 | 33.90862 | -116.57570 | 3189 ft | 227 kts | 357° |
| 2026-05-07 13:52 | 33.92448 | -116.57198 | 3416 ft | 241 kts | 28° |
| 2026-05-07 13:52 | 33.93703 | -116.55797 | 3660 ft | 256 kts | 59° |
| 2026-05-07 13:52 | 33.94133 | -116.53713 | 4023 ft | 268 kts | 93° |
| 2026-05-07 13:52 | 33.93490 | -116.51627 | 4581 ft | 273 kts | 126° |
| 2026-05-07 13:53 | 33.92205 | -116.49947 | 5220 ft | 274 kts | 131° |
| 2026-05-07 13:53 | 33.90893 | -116.48238 | 5805 ft | 277 kts | 130° |
| 2026-05-07 13:53 | 33.89608 | -116.46519 | 6374 ft | 279 kts | 129° |
| 2026-05-07 13:53 | 33.88325 | -116.44779 | 6948 ft | 280 kts | 127° |
| 2026-05-07 13:54 | 33.87398 | -116.42745 | 7474 ft | 277 kts | 98° |
| 2026-05-07 13:54 | 33.87534 | -116.40490 | 8056 ft | 272 kts | 66° |
| 2026-05-07 13:54 | 33.88384 | -116.38487 | 8698 ft | 271 kts | 60° |
| 2026-05-07 13:54 | 33.89265 | -116.36455 | 9229 ft | 274 kts | 62° |
| 2026-05-07 13:55 | 33.90097 | -116.34405 | 9769 ft | 276 kts | 64° |
| 2026-05-07 13:55 | 33.90912 | -116.32306 | 10352 ft | 277 kts | 64° |
| 2026-05-07 13:55 | 33.91717 | -116.30188 | 10655 ft | 288 kts | 65° |
| 2026-05-07 13:55 | 33.92558 | -116.27942 | 10907 ft | 301 kts | 65° |
| 2026-05-07 13:56 | 33.93426 | -116.25609 | 11137 ft | 314 kts | 65° |
| 2026-05-07 13:56 | 33.94343 | -116.23130 | 11373 ft | 326 kts | 65° |
| 2026-05-07 13:56 | 33.95282 | -116.20586 | 11598 ft | 339 kts | 65° |
| 2026-05-07 13:56 | 33.96246 | -116.17970 | 11819 ft | 351 kts | 65° |
| 2026-05-07 13:57 | 33.97246 | -116.15256 | 12030 ft | 362 kts | 65° |
| 2026-05-07 13:57 | 33.98277 | -116.12456 | 12350 ft | 369 kts | 65° |
| 2026-05-07 13:57 | 33.99316 | -116.09624 | 12840 ft | 371 kts | 65° |
| 2026-05-07 13:57 | 34.00369 | -116.06753 | 13333 ft | 373 kts | 65° |
| 2026-05-07 13:58 | 34.01409 | -116.03914 | 13790 ft | 375 kts | 65° |
| 2026-05-07 13:58 | 34.02459 | -116.01047 | 14235 ft | 378 kts | 65° |
| 2026-05-07 13:58 | 34.03525 | -115.98132 | 14681 ft | 380 kts | 65° |
| 2026-05-07 13:58 | 34.04588 | -115.95223 | 15127 ft | 381 kts | 65° |
| 2026-05-07 13:59 | 34.05654 | -115.92304 | 15547 ft | 384 kts | 65° |
| 2026-05-07 13:59 | 34.06736 | -115.89338 | 15966 ft | 386 kts | 64° |
| 2026-05-07 13:59 | 34.07811 | -115.86386 | 16385 ft | 387 kts | 64° |
| 2026-05-07 13:59 | 34.08899 | -115.83398 | 16812 ft | 389 kts | 64° |
| 2026-05-07 14:00 | 34.09956 | -115.80418 | 17209 ft | 391 kts | 67° |
| 2026-05-07 14:00 | 34.10739 | -115.77258 | 17587 ft | 396 kts | 75° |
| 2026-05-07 14:00 | 34.11144 | -115.73959 | 17985 ft | 400 kts | 82° |
| 2026-05-07 14:00 | 34.11216 | -115.70634 | 18372 ft | 404 kts | 86° |
| 2026-05-07 14:01 | 34.11200 | -115.67203 | 18742 ft | 406 kts | 87° |
| 2026-05-07 14:01 | 34.11171 | -115.63796 | 19098 ft | 409 kts | 87° |
| 2026-05-07 14:01 | 34.11140 | -115.60395 | 19468 ft | 410 kts | 87° |
| 2026-05-07 14:01 | 34.11111 | -115.56955 | 19809 ft | 413 kts | 86° |
| 2026-05-07 14:02 | 34.11084 | -115.53473 | 20138 ft | 415 kts | 87° |
| 2026-05-07 14:02 | 34.11058 | -115.50011 | 20477 ft | 417 kts | 86° |
| 2026-05-07 14:02 | 34.11031 | -115.46531 | 20814 ft | 419 kts | 86° |
| 2026-05-07 14:02 | 34.11004 | -115.43004 | 21149 ft | 420 kts | 86° |
| 2026-05-07 14:03 | 34.10975 | -115.39459 | 21470 ft | 422 kts | 86° |
| 2026-05-07 14:03 | 34.10946 | -115.35924 | 21779 ft | 424 kts | 86° |
| 2026-05-07 14:03 | 34.10916 | -115.32372 | 22070 ft | 426 kts | 87° |
| 2026-05-07 14:03 | 34.10885 | -115.28805 | 22350 ft | 429 kts | 87° |
| 2026-05-07 14:04 | 34.10852 | -115.25196 | 22654 ft | 430 kts | 87° |
| 2026-05-07 14:04 | 34.10818 | -115.21608 | 22961 ft | 432 kts | 87° |
| 2026-05-07 14:04 | 34.10783 | -115.17972 | 23233 ft | 433 kts | 86° |
| 2026-05-07 14:04 | 34.10748 | -115.14352 | 23512 ft | 435 kts | 86° |
| 2026-05-07 14:05 | 34.10711 | -115.10729 | 23794 ft | 437 kts | 86° |
| 2026-05-07 14:05 | 34.10674 | -115.07072 | 24041 ft | 439 kts | 86° |
| 2026-05-07 14:05 | 34.10633 | -115.03384 | 24300 ft | 440 kts | 86° |
| 2026-05-07 14:05 | 34.10592 | -114.99679 | 24546 ft | 442 kts | 86° |